createdAt,value
2022-10-05T00:01:27.037Z,4.83
2022-10-05T00:04:01.008Z,4.50
2022-10-05T00:06:31.016Z,4.70
2022-10-05T00:09:01.925Z,5.00
2022-10-05T00:11:32.540Z,5.13
2022-10-05T00:14:01.187Z,4.00
2022-10-05T00:16:30.731Z,5.03
2022-10-05T00:19:00.885Z,4.13
2022-10-05T00:21:30.401Z,4.20
2022-10-05T00:23:59.657Z,4.00
2022-10-05T00:26:33.576Z,4.03
2022-10-05T00:29:03.563Z,4.13
2022-10-05T00:31:33.756Z,4.27
2022-10-05T00:34:02.434Z,4.47
2022-10-05T00:36:30.921Z,4.90
2022-10-05T00:39:02.296Z,3.93
2022-10-05T00:41:37.420Z,4.10
2022-10-05T00:44:24.787Z,4.40
2022-10-05T00:46:57.660Z,4.53
2022-10-05T00:49:43.049Z,3.83
2022-10-05T00:52:20.360Z,4.23
2022-10-05T00:54:55.136Z,4.03
2022-10-05T00:57:34.975Z,3.87
2022-10-05T01:00:07.934Z,4.27
2022-10-05T01:02:49.182Z,4.07
2022-10-05T01:05:31.824Z,4.23
2022-10-05T01:08:08.068Z,5.03
2022-10-05T01:10:46.210Z,4.07
2022-10-05T01:13:25.487Z,4.23
2022-10-05T01:16:04.091Z,4.63
2022-10-05T01:18:39.724Z,5.03
2022-10-05T01:21:16.540Z,4.97
2022-10-05T01:24:08.760Z,4.57
2022-10-05T01:26:53.699Z,5.40
2022-10-05T01:29:26.005Z,5.13
2022-10-05T01:32:03.179Z,5.37
2022-10-05T01:34:38.948Z,5.67
2022-10-05T01:37:16.160Z,5.43
2022-10-05T01:39:51.780Z,5.53
2022-10-05T01:42:30.646Z,5.33
2022-10-05T01:45:07.685Z,5.70
2022-10-05T01:47:44.637Z,4.97
2022-10-05T01:50:27.422Z,5.57
2022-10-05T01:53:06.558Z,5.50
2022-10-05T01:55:41.977Z,5.80
2022-10-05T01:58:22.031Z,5.80
2022-10-05T02:01:00.656Z,5.77
2022-10-05T02:03:34.402Z,5.87
2022-10-05T02:06:09.477Z,6.27
2022-10-05T02:08:43.522Z,5.73
2022-10-05T02:11:14.990Z,5.93
2022-10-05T02:13:48.417Z,6.03
2022-10-05T02:16:22.109Z,5.43
2022-10-05T02:18:54.853Z,6.20
2022-10-05T02:21:24.500Z,5.60
2022-10-05T02:23:58.501Z,5.90
2022-10-05T02:26:28.178Z,5.83
2022-10-05T02:29:00.980Z,5.70
2022-10-05T02:31:38.992Z,5.63
2022-10-05T02:34:23.527Z,5.60
2022-10-05T02:37:02.540Z,5.30
2022-10-05T02:39:39.074Z,5.40
2022-10-05T02:42:15.558Z,6.27
2022-10-05T02:44:50.657Z,5.40
2022-10-05T02:47:27.924Z,5.83
2022-10-05T02:50:06.301Z,6.40
2022-10-05T02:52:44.816Z,5.67
2022-10-05T02:55:19.987Z,6.03
2022-10-05T02:57:55.380Z,5.77
2022-10-05T03:00:27.046Z,6.60
2022-10-05T03:03:04.080Z,5.67
2022-10-05T03:05:38.594Z,5.80
2022-10-05T03:08:14.247Z,6.13
2022-10-05T03:10:48.799Z,6.30
2022-10-05T03:13:23.811Z,6.13
2022-10-05T03:16:10.823Z,5.93
2022-10-05T03:18:54.556Z,5.97
2022-10-05T03:21:40.760Z,6.70
2022-10-05T03:24:26.719Z,6.53
2022-10-05T03:27:01.953Z,6.00
2022-10-05T03:29:36.491Z,5.27
2022-10-05T03:32:18.787Z,5.70
2022-10-05T03:34:55.024Z,5.53
2022-10-05T03:37:28.273Z,5.27
2022-10-05T03:40:09.217Z,5.30
2022-10-05T03:42:52.999Z,5.77
2022-10-05T03:45:28.389Z,5.97
2022-10-05T03:48:03.526Z,5.40
2022-10-05T03:50:46.146Z,5.70
2022-10-05T03:53:19.991Z,4.67
2022-10-05T03:55:54.680Z,4.77
2022-10-05T03:58:29.600Z,4.73
2022-10-05T04:01:03.479Z,5.00
2022-10-05T04:03:37.301Z,4.90
2022-10-05T04:06:13.367Z,4.83
2022-10-05T04:08:48.440Z,4.70
2022-10-05T04:11:26.575Z,4.50
2022-10-05T04:14:01.907Z,4.30
2022-10-05T04:16:35.812Z,4.07
2022-10-05T04:19:11.852Z,4.47
2022-10-05T04:21:48.084Z,4.03
2022-10-05T04:24:21.183Z,4.87
2022-10-05T04:26:53.221Z,4.43
2022-10-05T04:29:30.864Z,4.57
2022-10-05T04:32:12.824Z,4.30
2022-10-05T04:34:54.484Z,4.93
2022-10-05T04:37:31.675Z,4.47
2022-10-05T04:40:13.437Z,5.20
2022-10-05T04:42:48.815Z,4.40
2022-10-05T04:45:32.756Z,5.20
2022-10-05T04:48:18.716Z,4.37
2022-10-05T04:50:58.058Z,4.33
2022-10-05T04:53:33.426Z,3.93
2022-10-05T04:56:07.851Z,3.13
2022-10-05T04:58:48.747Z,3.73
2022-10-05T05:01:33.344Z,2.87
2022-10-05T05:04:22.342Z,3.33
2022-10-05T05:07:02.688Z,2.90
2022-10-05T05:09:53.191Z,2.67
2022-10-05T05:12:31.965Z,2.70
2022-10-05T05:15:17.973Z,3.73
2022-10-05T05:18:07.604Z,2.90
2022-10-05T05:20:48.347Z,2.90
2022-10-05T05:23:24.884Z,2.93
2022-10-05T05:26:04.245Z,3.30
2022-10-05T05:28:42.137Z,3.37
2022-10-05T05:31:16.923Z,2.80
2022-10-05T05:33:57.308Z,3.37
2022-10-05T05:36:46.826Z,3.77
2022-10-05T05:39:26.532Z,3.00
2022-10-05T05:42:20.602Z,3.63
2022-10-05T05:44:52.697Z,2.80
2022-10-05T05:47:31.039Z,3.20
2022-10-05T05:50:20.901Z,3.73
2022-10-05T05:52:54.705Z,3.50
2022-10-05T05:55:30.342Z,3.63
2022-10-05T05:58:10.177Z,3.90
2022-10-05T06:00:43.904Z,3.80
2022-10-05T06:03:17.178Z,3.80
2022-10-05T06:05:49.775Z,3.97
2022-10-05T06:08:25.621Z,3.83
2022-10-05T06:11:06.299Z,3.87
2022-10-05T06:13:39.404Z,4.20
2022-10-05T06:16:15.123Z,4.03
2022-10-05T06:18:48.903Z,3.90
2022-10-05T06:21:24.439Z,4.53
2022-10-05T06:23:58.548Z,4.50
2022-10-05T06:26:56.344Z,5.13
2022-10-05T06:29:33.889Z,5.27
2022-10-05T06:32:07.383Z,4.83
2022-10-05T06:34:51.722Z,5.23
2022-10-05T06:37:35.094Z,5.00
2022-10-05T06:40:14.625Z,3.83
2022-10-05T06:43:00.385Z,4.00
2022-10-05T06:45:48.690Z,3.80
2022-10-05T06:48:39.647Z,3.90
2022-10-05T06:51:32.299Z,3.90
2022-10-05T06:54:26.605Z,3.43
2022-10-05T06:57:01.988Z,3.67
2022-10-05T06:59:37.336Z,4.00
2022-10-05T07:02:13.966Z,3.60
2022-10-05T07:05:00.436Z,3.47
2022-10-05T07:07:37.055Z,4.13
2022-10-05T07:10:18.322Z,3.53
2022-10-05T07:13:01.116Z,3.23
2022-10-05T07:15:45.343Z,3.90
2022-10-05T07:18:41.229Z,3.67
2022-10-05T07:21:20.110Z,3.40
2022-10-05T07:24:02.355Z,3.10
2022-10-05T07:26:35.110Z,3.50
2022-10-05T07:29:20.831Z,2.90
2022-10-05T07:31:57.832Z,3.33
2022-10-05T07:34:39.104Z,3.57
2022-10-05T07:37:30.382Z,3.67
2022-10-05T07:40:09.751Z,3.60
2022-10-05T07:42:52.677Z,3.57
2022-10-05T07:45:30.210Z,4.17
2022-10-05T07:48:08.520Z,3.70
2022-10-05T07:50:45.492Z,3.13
2022-10-05T07:53:21.082Z,3.53
2022-10-05T07:55:53.987Z,3.17
2022-10-05T07:58:29.850Z,3.23
2022-10-05T08:01:09.214Z,2.63
2022-10-05T08:03:50.081Z,2.70
2022-10-05T08:06:35.755Z,2.90
2022-10-05T08:09:12.730Z,2.70
2022-10-05T08:11:49.634Z,2.70
2022-10-05T08:14:25.990Z,3.10
2022-10-05T08:16:58.033Z,3.47
2022-10-05T08:19:34.999Z,2.97
2022-10-05T08:22:09.864Z,3.33
2022-10-05T08:24:44.717Z,3.00
2022-10-05T08:27:18.515Z,2.97
2022-10-05T08:29:55.302Z,3.10
2022-10-05T08:32:26.663Z,3.13
2022-10-05T08:35:00.181Z,3.13
2022-10-05T08:37:34.636Z,3.10
2022-10-05T08:40:39.844Z,2.70
2022-10-05T08:43:22.950Z,3.20
2022-10-05T08:46:42.546Z,2.70
2022-10-05T08:49:42.040Z,3.03
2022-10-05T08:52:26.421Z,2.90
2022-10-05T08:55:31.655Z,2.70
2022-10-05T08:58:34.012Z,2.67
2022-10-05T09:01:08.789Z,2.70
2022-10-05T09:03:53.631Z,3.20
2022-10-05T09:06:51.029Z,2.67
2022-10-05T09:09:43.879Z,2.60
2022-10-05T09:12:40.056Z,2.83
2022-10-05T09:15:26.713Z,2.23
2022-10-05T09:18:30.304Z,2.43
2022-10-05T09:21:03.687Z,2.20
2022-10-05T09:23:40.139Z,2.57
2022-10-05T09:26:13.255Z,2.83
2022-10-05T09:28:57.449Z,3.00
2022-10-05T09:31:48.540Z,2.80
2022-10-05T09:34:47.725Z,3.00
2022-10-05T09:37:48.187Z,2.70
2022-10-05T09:40:52.682Z,2.20
2022-10-05T09:43:43.761Z,2.40
2022-10-05T09:46:55.349Z,1.90
2022-10-05T09:49:54.616Z,2.30
2022-10-05T09:52:41.566Z,2.20
2022-10-05T09:55:35.999Z,1.90
2022-10-05T09:58:31.876Z,2.00
2022-10-05T10:01:34.146Z,1.93
2022-10-05T10:04:24.737Z,1.97
2022-10-05T10:07:13.251Z,2.10
2022-10-05T10:10:00.849Z,2.13
2022-10-05T10:12:38.478Z,2.47
2022-10-05T10:15:29.452Z,2.23
2022-10-05T10:18:28.805Z,2.17
2022-10-05T10:21:18.440Z,2.13
2022-10-05T10:24:06.379Z,2.80
2022-10-05T10:26:58.303Z,2.53
2022-10-05T10:29:55.624Z,3.00
2022-10-05T10:33:11.261Z,2.30
2022-10-05T10:35:41.861Z,2.77
2022-10-05T10:38:28.608Z,2.30
2022-10-05T10:41:21.933Z,2.13
2022-10-05T10:44:23.118Z,2.10
2022-10-05T10:47:07.626Z,2.73
2022-10-05T10:49:54.662Z,2.33
2022-10-05T10:52:38.391Z,3.07
2022-10-05T10:55:28.067Z,2.50
2022-10-05T10:58:31.806Z,2.87
2022-10-05T11:01:12.797Z,2.80
2022-10-05T11:04:13.127Z,2.57
2022-10-05T11:07:02.393Z,3.23
2022-10-05T11:10:03.137Z,2.30
2022-10-05T11:13:00.659Z,2.60
2022-10-05T11:16:02.612Z,2.40
2022-10-05T11:18:48.032Z,2.40
2022-10-05T11:21:30.346Z,2.73
2022-10-05T11:24:38.791Z,2.40
2022-10-05T11:30:35.149Z,2.23
2022-10-05T11:33:35.952Z,2.57
2022-10-05T11:36:31.066Z,4.43
2022-10-05T11:39:30.282Z,2.90
2022-10-05T11:42:28.812Z,2.93
2022-10-05T11:45:26.462Z,1.80
2022-10-05T11:48:25.805Z,2.40
2022-10-05T11:51:28.573Z,2.20
2022-10-05T11:54:07.900Z,2.10
2022-10-05T11:56:41.153Z,2.50
2022-10-05T11:59:16.206Z,2.77
2022-10-05T12:01:53.478Z,2.00
2022-10-05T12:04:35.342Z,2.23
2022-10-05T12:07:17.198Z,1.70
2022-10-05T12:10:21.201Z,2.10
2022-10-05T12:13:13.938Z,2.00
2022-10-05T12:15:49.106Z,2.13
2022-10-05T12:18:23.235Z,2.00
2022-10-05T12:20:58.075Z,2.27
2022-10-05T12:23:34.575Z,2.30
2022-10-05T12:26:06.387Z,1.97
2022-10-05T12:28:42.150Z,2.20
2022-10-05T12:31:23.094Z,2.40
2022-10-05T12:33:58.365Z,1.60
2022-10-05T12:36:59.187Z,1.97
2022-10-05T12:39:33.372Z,1.83
2022-10-05T12:42:16.837Z,2.30
2022-10-05T12:45:01.492Z,2.20
2022-10-05T12:47:37.312Z,1.87
2022-10-05T12:50:19.819Z,1.80
2022-10-05T12:53:11.041Z,1.83
2022-10-05T12:55:48.868Z,1.90
2022-10-05T12:58:28.699Z,2.00
2022-10-05T13:01:14.223Z,1.70
2022-10-05T13:03:50.369Z,2.00
2022-10-05T13:06:26.209Z,2.30
2022-10-05T13:09:01.497Z,2.03
2022-10-05T13:11:37.017Z,1.83
2022-10-05T13:14:14.921Z,1.63
2022-10-05T13:16:55.124Z,2.10
2022-10-05T13:19:35.513Z,1.60
2022-10-05T13:22:22.935Z,1.90
2022-10-05T13:25:01.067Z,2.00
2022-10-05T13:27:32.868Z,2.23
2022-10-05T13:30:06.561Z,1.90
2022-10-05T13:32:37.667Z,2.07
2022-10-05T13:35:24.992Z,2.40
2022-10-05T13:38:04.125Z,2.20
2022-10-05T13:40:39.142Z,1.83
2022-10-05T13:43:28.148Z,1.90
2022-10-05T13:46:04.946Z,1.80
2022-10-05T13:49:00.553Z,1.53
2022-10-05T13:51:37.386Z,2.00
2022-10-05T13:54:16.192Z,2.00
2022-10-05T13:56:49.468Z,1.87
2022-10-05T13:59:26.702Z,1.80
2022-10-05T14:01:59.738Z,1.50
2022-10-05T14:04:31.140Z,1.87
2022-10-05T14:07:21.703Z,1.63
2022-10-05T14:09:50.652Z,2.20
2022-10-05T14:12:23.869Z,1.93
2022-10-05T14:14:55.132Z,2.43
2022-10-05T14:17:47.431Z,2.00
2022-10-05T14:20:24.145Z,1.93
2022-10-05T14:22:59.194Z,1.80
2022-10-05T14:25:29.075Z,1.90
2022-10-05T14:28:01.866Z,1.67
2022-10-05T14:30:33.587Z,1.50
2022-10-05T14:33:16.104Z,1.60
2022-10-05T14:35:50.565Z,1.70
2022-10-05T14:38:21.787Z,1.63
2022-10-05T14:41:15.835Z,2.13
2022-10-05T14:43:52.250Z,2.03
2022-10-05T14:46:29.212Z,1.90
2022-10-05T14:49:21.493Z,2.13
2022-10-05T14:51:52.084Z,1.37
2022-10-05T14:54:29.959Z,1.40
2022-10-05T14:57:17.944Z,1.23
2022-10-05T15:00:00.782Z,1.20
2022-10-05T15:02:55.581Z,1.63
2022-10-05T15:05:31.400Z,1.30
2022-10-05T15:08:10.013Z,1.70
2022-10-05T15:10:43.157Z,1.47
2022-10-05T15:13:16.809Z,1.30
2022-10-05T15:15:51.934Z,1.40
2022-10-05T15:18:32.024Z,1.30
2022-10-05T15:21:24.154Z,1.63
2022-10-05T15:23:57.444Z,1.47
2022-10-05T15:26:36.171Z,1.80
2022-10-05T15:29:17.664Z,2.03
2022-10-05T15:31:55.681Z,1.47
2022-10-05T15:34:31.266Z,1.60
2022-10-05T15:37:07.776Z,1.90
2022-10-05T15:39:44.132Z,1.67
2022-10-05T15:42:15.188Z,2.07
2022-10-05T15:44:58.192Z,1.67
2022-10-05T15:47:35.428Z,1.97
2022-10-05T15:50:13.175Z,1.60
2022-10-05T15:52:47.212Z,1.70
2022-10-05T15:55:35.105Z,1.70
2022-10-05T15:58:45.438Z,2.90
2022-10-05T16:01:17.873Z,1.90
2022-10-05T16:03:51.318Z,1.40
2022-10-05T16:07:01.108Z,1.60
2022-10-05T16:09:49.707Z,1.30
2022-10-05T16:12:30.968Z,1.20
2022-10-05T16:15:16.551Z,1.50
2022-10-05T16:18:12.943Z,1.63
2022-10-05T16:20:49.980Z,1.50
2022-10-05T16:23:29.745Z,1.27
2022-10-05T16:26:14.616Z,1.63
2022-10-05T16:28:50.298Z,2.13
2022-10-05T16:31:23.162Z,2.17
2022-10-05T16:34:01.398Z,1.87
2022-10-05T16:36:45.408Z,2.43
2022-10-05T16:39:20.391Z,1.50
2022-10-05T16:41:56.489Z,1.60
2022-10-05T16:44:35.336Z,2.13
2022-10-05T16:47:10.532Z,1.23
2022-10-05T16:49:48.871Z,2.43
2022-10-05T16:52:20.320Z,1.80
2022-10-05T16:54:54.788Z,1.90
2022-10-05T16:57:27.452Z,1.60
2022-10-05T17:00:13.420Z,1.40
2022-10-05T17:03:08.181Z,1.73
2022-10-05T17:05:58.888Z,1.80
2022-10-05T17:09:11.616Z,1.70
2022-10-05T17:11:59.235Z,1.53
2022-10-05T17:14:45.032Z,1.37
2022-10-05T17:17:37.998Z,1.63
2022-10-05T17:20:20.204Z,1.33
2022-10-05T17:22:52.885Z,1.73
2022-10-05T17:25:29.949Z,2.10
2022-10-05T17:28:21.539Z,1.93
2022-10-05T17:30:53.961Z,1.70
2022-10-05T17:33:28.940Z,2.03
2022-10-05T17:36:18.780Z,2.00
2022-10-05T17:38:50.857Z,2.00
2022-10-05T17:41:22.192Z,1.77
2022-10-05T17:44:33.309Z,2.10
2022-10-05T17:47:04.006Z,1.60
2022-10-05T17:50:13.821Z,2.00
2022-10-05T17:53:02.251Z,1.57
2022-10-05T17:55:44.531Z,1.67
2022-10-05T17:59:01.869Z,1.43
2022-10-05T18:01:33.761Z,1.70
2022-10-05T18:04:39.079Z,1.67
2022-10-05T18:07:20.792Z,1.70
2022-10-05T18:10:17.219Z,1.83
2022-10-05T18:12:48.394Z,1.70
2022-10-05T18:15:48.496Z,2.37
2022-10-05T18:18:58.513Z,1.50
2022-10-05T18:21:37.786Z,1.73
2022-10-05T18:24:28.410Z,2.27
2022-10-05T18:27:12.482Z,2.20
2022-10-05T18:30:05.263Z,1.97
2022-10-05T18:33:00.836Z,1.90
2022-10-05T18:35:37.205Z,2.10
2022-10-05T18:38:18.397Z,1.80
2022-10-05T18:40:55.515Z,2.53
2022-10-05T18:43:31.061Z,1.80
2022-10-05T18:46:12.176Z,2.03
2022-10-05T18:48:49.861Z,2.40
2022-10-05T18:51:26.126Z,1.60
2022-10-05T18:54:08.736Z,1.88
2022-10-05T18:56:44.451Z,2.00
2022-10-05T18:59:29.623Z,2.80
2022-10-05T19:02:10.933Z,1.70
2022-10-05T19:04:52.389Z,1.77
2022-10-05T19:07:29.419Z,2.03
2022-10-05T19:10:14.817Z,1.60
2022-10-05T19:12:55.600Z,1.50
2022-10-05T19:15:30.748Z,2.00
2022-10-05T19:18:15.333Z,1.40
2022-10-05T19:20:54.572Z,1.97
2022-10-05T19:23:35.084Z,2.17
2022-10-05T19:26:13.126Z,1.90
2022-10-05T19:28:49.827Z,1.53
2022-10-05T19:31:30.208Z,2.10
2022-10-05T19:34:09.664Z,2.17
2022-10-05T19:36:59.150Z,2.07
2022-10-05T19:39:36.117Z,1.97
2022-10-05T19:42:40.259Z,1.57
2022-10-05T19:45:18.703Z,1.60
2022-10-05T19:47:59.915Z,1.70
2022-10-05T19:50:30.951Z,1.83
2022-10-05T19:53:08.107Z,2.60
2022-10-05T19:55:39.661Z,2.00
2022-10-05T19:58:21.099Z,1.77
2022-10-05T20:01:00.788Z,1.13
2022-10-05T20:03:31.070Z,1.17
2022-10-05T20:06:01.547Z,1.27
2022-10-05T20:08:39.293Z,0.80
2022-10-05T20:11:11.100Z,1.27
2022-10-05T20:13:42.660Z,1.20
2022-10-05T20:16:38.188Z,1.50
2022-10-05T20:19:51.282Z,1.70
2022-10-05T20:22:34.259Z,1.10
2022-10-05T20:25:05.671Z,1.13
2022-10-05T20:27:46.540Z,1.17
2022-10-05T20:30:18.375Z,0.90
2022-10-05T20:32:48.779Z,0.77
2022-10-05T20:35:18.140Z,0.90
2022-10-05T20:37:46.672Z,0.90
2022-10-05T20:40:17.629Z,1.03
2022-10-05T20:42:46.047Z,0.93
2022-10-05T20:45:17.234Z,0.60
2022-10-05T20:47:46.543Z,0.87
2022-10-05T20:50:15.765Z,0.90
2022-10-05T20:52:44.216Z,0.80
2022-10-05T20:55:13.190Z,0.70
2022-10-05T20:57:42.505Z,0.90
2022-10-05T21:00:12.284Z,2.73
2022-10-05T21:02:42.100Z,1.50
2022-10-05T21:05:10.842Z,1.50
2022-10-05T21:07:40.808Z,1.20
2022-10-05T21:10:09.959Z,1.50
2022-10-05T21:12:38.583Z,1.00
2022-10-05T21:15:07.731Z,1.30
2022-10-05T21:17:38.034Z,1.50
2022-10-05T21:20:11.479Z,1.00
2022-10-05T21:22:39.959Z,1.20
2022-10-05T21:25:09.060Z,1.40
2022-10-05T21:27:37.524Z,1.00
2022-10-05T21:30:06.845Z,0.77
2022-10-05T21:32:35.265Z,0.70
2022-10-05T21:35:03.687Z,0.77
2022-10-05T21:37:33.473Z,0.73
2022-10-05T21:40:01.845Z,0.47
2022-10-05T21:42:30.416Z,0.63
2022-10-05T21:44:58.841Z,0.50
2022-10-05T21:47:27.393Z,0.90
2022-10-05T21:49:56.108Z,0.60
2022-10-05T21:52:24.604Z,0.80
2022-10-05T21:54:54.358Z,0.77
2022-10-05T21:57:23.147Z,0.70
2022-10-05T21:59:51.642Z,0.60
2022-10-05T22:02:20.029Z,0.60
2022-10-05T22:04:48.403Z,0.60
2022-10-05T22:07:19.084Z,0.63
2022-10-05T22:09:48.705Z,0.87
2022-10-05T22:12:20.393Z,0.80
2022-10-05T22:14:49.616Z,1.23
2022-10-05T22:17:22.776Z,1.13
2022-10-05T22:19:51.262Z,2.27
2022-10-05T22:22:19.698Z,1.00
2022-10-05T22:24:48.051Z,1.10
2022-10-05T22:27:18.060Z,0.73
2022-10-05T22:29:47.108Z,0.73
2022-10-05T22:32:15.587Z,1.27
2022-10-05T22:34:44.040Z,2.00
2022-10-05T22:37:14.314Z,1.10
2022-10-05T22:39:44.132Z,0.93
2022-10-05T22:42:12.504Z,1.23
2022-10-05T22:44:42.258Z,0.90
2022-10-05T22:47:10.663Z,0.77
2022-10-05T22:49:39.111Z,1.20
2022-10-05T22:52:07.500Z,1.30
2022-10-05T22:54:37.423Z,1.20
2022-10-05T22:57:05.949Z,1.30
2022-10-05T22:59:34.385Z,1.20
2022-10-05T23:02:04.493Z,0.70
2022-10-05T23:04:33.041Z,1.00
2022-10-05T23:07:01.410Z,1.00
2022-10-05T23:09:29.772Z,0.90
2022-10-05T23:11:58.216Z,1.40
2022-10-05T23:14:29.275Z,1.13
2022-10-05T23:16:57.821Z,1.10
2022-10-05T23:19:27.787Z,2.37
2022-10-05T23:21:56.211Z,2.07
2022-10-05T23:24:24.628Z,1.43
2022-10-05T23:26:53.000Z,1.30
2022-10-05T23:29:21.424Z,1.03
2022-10-05T23:31:49.794Z,1.50
2022-10-05T23:34:18.166Z,1.17
2022-10-05T23:36:47.953Z,1.73
2022-10-05T23:39:16.416Z,1.83
2022-10-05T23:41:44.780Z,1.43
2022-10-05T23:44:13.184Z,1.53
2022-10-05T23:46:41.526Z,1.73
2022-10-05T23:49:09.881Z,1.10
2022-10-05T23:51:38.244Z,1.43
2022-10-05T23:54:08.208Z,1.23
2022-10-05T23:56:36.592Z,2.47
2022-10-05T23:59:04.958Z,1.13
